sensor_id;sensor_type;location;lat;lon;timestamp;P1;durP1;ratioP1;P2;durP2;ratioP2
62957;SDS011;49056;48.352;10.926;2022-12-07T00:03:09;1.57;;;1.00;;
62957;SDS011;49056;48.352;10.926;2022-12-07T00:08:30;2.53;;;1.10;;
62957;SDS011;49056;48.352;10.926;2022-12-07T00:13:52;1.85;;;1.15;;
62957;SDS011;49056;48.352;10.926;2022-12-07T00:19:12;2.53;;;1.10;;
62957;SDS011;49056;48.352;10.926;2022-12-07T00:24:33;1.20;;;0.90;;
62957;SDS011;49056;48.352;10.926;2022-12-07T00:29:53;2.25;;;1.20;;
62957;SDS011;49056;48.352;10.926;2022-12-07T00:35:14;2.85;;;1.50;;
62957;SDS011;49056;48.352;10.926;2022-12-07T00:40:34;2.05;;;1.00;;
62957;SDS011;49056;48.352;10.926;2022-12-07T00:45:54;1.50;;;0.93;;
62957;SDS011;49056;48.352;10.926;2022-12-07T00:51:15;1.65;;;0.90;;
62957;SDS011;49056;48.352;10.926;2022-12-07T00:56:36;1.12;;;0.82;;
62957;SDS011;49056;48.352;10.926;2022-12-07T01:01:56;1.35;;;0.80;;
62957;SDS011;49056;48.352;10.926;2022-12-07T01:07:17;1.48;;;0.90;;
62957;SDS011;49056;48.352;10.926;2022-12-07T01:12:37;1.57;;;0.90;;
62957;SDS011;49056;48.352;10.926;2022-12-07T01:17:57;1.62;;;0.90;;
62957;SDS011;49056;48.352;10.926;2022-12-07T01:23:18;1.45;;;0.85;;
62957;SDS011;49056;48.352;10.926;2022-12-07T01:28:38;1.80;;;1.10;;
62957;SDS011;49056;48.352;10.926;2022-12-07T01:33:59;1.52;;;0.90;;
62957;SDS011;49056;48.352;10.926;2022-12-07T01:39:19;1.60;;;1.00;;
62957;SDS011;49056;48.352;10.926;2022-12-07T01:50:19;1.20;;;0.80;;
62957;SDS011;49056;48.352;10.926;2022-12-07T01:55:42;1.35;;;0.80;;
62957;SDS011;49056;48.352;10.926;2022-12-07T02:01:04;1.65;;;0.90;;
62957;SDS011;49056;48.352;10.926;2022-12-07T02:06:24;1.48;;;0.80;;
62957;SDS011;49056;48.352;10.926;2022-12-07T02:11:45;2.05;;;1.05;;
62957;SDS011;49056;48.352;10.926;2022-12-07T02:28:55;2.42;;;1.27;;
62957;SDS011;49056;48.352;10.926;2022-12-07T02:34:27;1.62;;;0.90;;
62957;SDS011;49056;48.352;10.926;2022-12-07T02:39:54;2.35;;;1.05;;
62957;SDS011;49056;48.352;10.926;2022-12-07T02:45:17;1.45;;;0.90;;
62957;SDS011;49056;48.352;10.926;2022-12-07T02:50:38;1.98;;;1.20;;
62957;SDS011;49056;48.352;10.926;2022-12-07T02:56:02;1.75;;;0.88;;
62957;SDS011;49056;48.352;10.926;2022-12-07T03:06:49;1.85;;;1.05;;
62957;SDS011;49056;48.352;10.926;2022-12-07T03:12:12;1.98;;;1.00;;
62957;SDS011;49056;48.352;10.926;2022-12-07T03:17:36;1.67;;;0.85;;
62957;SDS011;49056;48.352;10.926;2022-12-07T03:22:57;2.42;;;1.33;;
62957;SDS011;49056;48.352;10.926;2022-12-07T03:28:19;1.83;;;0.85;;
62957;SDS011;49056;48.352;10.926;2022-12-07T03:33:46;1.48;;;1.00;;
62957;SDS011;49056;48.352;10.926;2022-12-07T03:44:38;2.47;;;0.80;;
62957;SDS011;49056;48.352;10.926;2022-12-07T03:50:09;1.37;;;1.00;;
62957;SDS011;49056;48.352;10.926;2022-12-07T03:55:35;2.80;;;0.90;;
62957;SDS011;49056;48.352;10.926;2022-12-07T04:00:57;1.77;;;0.98;;
62957;SDS011;49056;48.352;10.926;2022-12-07T04:06:17;1.27;;;0.97;;
62957;SDS011;49056;48.352;10.926;2022-12-07T04:11:37;1.35;;;0.75;;
62957;SDS011;49056;48.352;10.926;2022-12-07T04:16:58;1.90;;;1.12;;
62957;SDS011;49056;48.352;10.926;2022-12-07T04:22:18;2.17;;;1.08;;
62957;SDS011;49056;48.352;10.926;2022-12-07T04:27:38;1.37;;;0.75;;
62957;SDS011;49056;48.352;10.926;2022-12-07T04:32:59;2.57;;;0.97;;
62957;SDS011;49056;48.352;10.926;2022-12-07T04:38:19;1.20;;;0.75;;
62957;SDS011;49056;48.352;10.926;2022-12-07T04:43:39;1.85;;;0.98;;
62957;SDS011;49056;48.352;10.926;2022-12-07T04:49:00;2.50;;;1.30;;
62957;SDS011;49056;48.352;10.926;2022-12-07T04:54:20;1.33;;;0.85;;
62957;SDS011;49056;48.352;10.926;2022-12-07T04:59:40;1.43;;;0.90;;
62957;SDS011;49056;48.352;10.926;2022-12-07T05:05:01;2.72;;;1.20;;
62957;SDS011;49056;48.352;10.926;2022-12-07T05:10:21;2.03;;;1.60;;
62957;SDS011;49056;48.352;10.926;2022-12-07T05:15:41;1.23;;;0.88;;
62957;SDS011;49056;48.352;10.926;2022-12-07T05:21:05;1.92;;;0.90;;
62957;SDS011;49056;48.352;10.926;2022-12-07T05:26:25;2.15;;;0.85;;
62957;SDS011;49056;48.352;10.926;2022-12-07T05:31:45;1.50;;;0.93;;
62957;SDS011;49056;48.352;10.926;2022-12-07T05:37:06;1.40;;;0.87;;
62957;SDS011;49056;48.352;10.926;2022-12-07T05:42:26;1.83;;;1.10;;
62957;SDS011;49056;48.352;10.926;2022-12-07T05:47:46;1.73;;;1.02;;
62957;SDS011;49056;48.352;10.926;2022-12-07T05:53:07;2.37;;;1.05;;
62957;SDS011;49056;48.352;10.926;2022-12-07T05:58:27;1.90;;;1.10;;
62957;SDS011;49056;48.352;10.926;2022-12-07T06:04:06;2.90;;;1.45;;
62957;SDS011;49056;48.352;10.926;2022-12-07T06:09:27;2.45;;;1.08;;
62957;SDS011;49056;48.352;10.926;2022-12-07T06:14:48;2.10;;;1.10;;
62957;SDS011;49056;48.352;10.926;2022-12-07T06:20:08;2.67;;;1.25;;
62957;SDS011;49056;48.352;10.926;2022-12-07T06:25:28;1.55;;;0.98;;
62957;SDS011;49056;48.352;10.926;2022-12-07T06:30:56;2.05;;;0.95;;
62957;SDS011;49056;48.352;10.926;2022-12-07T06:36:16;2.30;;;1.05;;
62957;SDS011;49056;48.352;10.926;2022-12-07T06:41:37;4.03;;;1.17;;
62957;SDS011;49056;48.352;10.926;2022-12-07T06:46:57;2.15;;;1.10;;
62957;SDS011;49056;48.352;10.926;2022-12-07T06:52:18;2.57;;;1.20;;
62957;SDS011;49056;48.352;10.926;2022-12-07T06:57:38;2.20;;;1.30;;
62957;SDS011;49056;48.352;10.926;2022-12-07T07:02:59;2.47;;;1.30;;
62957;SDS011;49056;48.352;10.926;2022-12-07T07:08:19;2.63;;;1.20;;
62957;SDS011;49056;48.352;10.926;2022-12-07T07:13:40;2.25;;;1.33;;
62957;SDS011;49056;48.352;10.926;2022-12-07T07:19:00;2.67;;;1.33;;
62957;SDS011;49056;48.352;10.926;2022-12-07T07:24:20;2.77;;;1.03;;
62957;SDS011;49056;48.352;10.926;2022-12-07T07:29:41;2.53;;;1.20;;
62957;SDS011;49056;48.352;10.926;2022-12-07T07:35:01;1.98;;;0.90;;
62957;SDS011;49056;48.352;10.926;2022-12-07T07:40:22;1.58;;;1.02;;
62957;SDS011;49056;48.352;10.926;2022-12-07T07:45:42;4.12;;;1.60;;
62957;SDS011;49056;48.352;10.926;2022-12-07T07:51:07;1.62;;;1.10;;
62957;SDS011;49056;48.352;10.926;2022-12-07T07:56:27;2.65;;;1.17;;
62957;SDS011;49056;48.352;10.926;2022-12-07T08:01:48;2.50;;;1.25;;
62957;SDS011;49056;48.352;10.926;2022-12-07T08:07:08;3.37;;;1.27;;
62957;SDS011;49056;48.352;10.926;2022-12-07T08:12:28;4.23;;;1.80;;
62957;SDS011;49056;48.352;10.926;2022-12-07T08:17:49;3.20;;;1.42;;
62957;SDS011;49056;48.352;10.926;2022-12-07T08:23:09;2.97;;;1.50;;
62957;SDS011;49056;48.352;10.926;2022-12-07T08:28:30;2.05;;;1.27;;
62957;SDS011;49056;48.352;10.926;2022-12-07T08:33:51;2.17;;;1.27;;
62957;SDS011;49056;48.352;10.926;2022-12-07T08:39:11;2.50;;;1.42;;
62957;SDS011;49056;48.352;10.926;2022-12-07T08:44:32;2.33;;;1.17;;
62957;SDS011;49056;48.352;10.926;2022-12-07T08:49:52;2.07;;;1.10;;
62957;SDS011;49056;48.352;10.926;2022-12-07T08:55:13;2.58;;;1.27;;
62957;SDS011;49056;48.352;10.926;2022-12-07T09:00:34;1.67;;;1.40;;
62957;SDS011;49056;48.352;10.926;2022-12-07T09:05:54;2.87;;;1.52;;
62957;SDS011;49056;48.352;10.926;2022-12-07T09:11:14;3.87;;;1.48;;
62957;SDS011;49056;48.352;10.926;2022-12-07T09:16:35;3.33;;;1.83;;
62957;SDS011;49056;48.352;10.926;2022-12-07T09:21:55;2.20;;;1.20;;
62957;SDS011;49056;48.352;10.926;2022-12-07T09:27:15;2.57;;;1.37;;
62957;SDS011;49056;48.352;10.926;2022-12-07T09:32:37;3.17;;;1.40;;
62957;SDS011;49056;48.352;10.926;2022-12-07T09:37:58;2.58;;;1.25;;
62957;SDS011;49056;48.352;10.926;2022-12-07T09:43:22;2.90;;;1.50;;
62957;SDS011;49056;48.352;10.926;2022-12-07T09:48:43;2.42;;;1.17;;
62957;SDS011;49056;48.352;10.926;2022-12-07T09:54:04;2.40;;;1.10;;
62957;SDS011;49056;48.352;10.926;2022-12-07T09:59:25;3.37;;;1.48;;
62957;SDS011;49056;48.352;10.926;2022-12-07T10:04:45;2.78;;;1.65;;
62957;SDS011;49056;48.352;10.926;2022-12-07T10:10:09;3.80;;;1.40;;
62957;SDS011;49056;48.352;10.926;2022-12-07T10:21:24;2.40;;;1.35;;
62957;SDS011;49056;48.352;10.926;2022-12-07T10:37:39;2.53;;;1.35;;
62957;SDS011;49056;48.352;10.926;2022-12-07T10:54:09;2.40;;;1.25;;
62957;SDS011;49056;48.352;10.926;2022-12-07T10:59:39;1.62;;;1.10;;
62957;SDS011;49056;48.352;10.926;2022-12-07T11:10:55;3.05;;;1.75;;
62957;SDS011;49056;48.352;10.926;2022-12-07T11:37:42;3.50;;;1.60;;
62957;SDS011;49056;48.352;10.926;2022-12-07T11:43:18;2.58;;;1.02;;
62957;SDS011;49056;48.352;10.926;2022-12-07T11:54:18;2.17;;;0.93;;
62957;SDS011;49056;48.352;10.926;2022-12-07T11:59:39;1.87;;;0.90;;
62957;SDS011;49056;48.352;10.926;2022-12-07T12:05:22;2.85;;;1.33;;
62957;SDS011;49056;48.352;10.926;2022-12-07T12:16:16;2.55;;;1.35;;
62957;SDS011;49056;48.352;10.926;2022-12-07T12:21:43;1.87;;;1.23;;
62957;SDS011;49056;48.352;10.926;2022-12-07T12:27:06;2.37;;;1.15;;
62957;SDS011;49056;48.352;10.926;2022-12-07T12:32:44;1.70;;;1.15;;
62957;SDS011;49056;48.352;10.926;2022-12-07T12:38:48;3.67;;;1.58;;
62957;SDS011;49056;48.352;10.926;2022-12-07T12:43:49;2.70;;;1.15;;
62957;SDS011;49056;48.352;10.926;2022-12-07T12:54:35;2.83;;;1.05;;
62957;SDS011;49056;48.352;10.926;2022-12-07T12:59:57;2.20;;;1.20;;
62957;SDS011;49056;48.352;10.926;2022-12-07T13:05:22;2.45;;;0.98;;
62957;SDS011;49056;48.352;10.926;2022-12-07T13:10:43;2.80;;;1.30;;
62957;SDS011;49056;48.352;10.926;2022-12-07T13:26:47;3.40;;;1.43;;
62957;SDS011;49056;48.352;10.926;2022-12-07T13:32:21;2.60;;;1.40;;
62957;SDS011;49056;48.352;10.926;2022-12-07T13:37:42;1.70;;;1.02;;
62957;SDS011;49056;48.352;10.926;2022-12-07T13:43:04;2.05;;;1.08;;
62957;SDS011;49056;48.352;10.926;2022-12-07T13:53:46;1.97;;;1.03;;
62957;SDS011;49056;48.352;10.926;2022-12-07T13:59:39;2.10;;;0.95;;
62957;SDS011;49056;48.352;10.926;2022-12-07T14:05:06;1.15;;;0.93;;
62957;SDS011;49056;48.352;10.926;2022-12-07T14:10:33;2.03;;;1.00;;
62957;SDS011;49056;48.352;10.926;2022-12-07T14:15:54;1.48;;;1.17;;
62957;SDS011;49056;48.352;10.926;2022-12-07T14:21:15;2.80;;;1.42;;
62957;SDS011;49056;48.352;10.926;2022-12-07T14:26:37;2.10;;;0.82;;
62957;SDS011;49056;48.352;10.926;2022-12-07T14:32:13;0.82;;;0.60;;
62957;SDS011;49056;48.352;10.926;2022-12-07T14:37:36;1.17;;;0.60;;
62957;SDS011;49056;48.352;10.926;2022-12-07T14:42:57;2.12;;;1.17;;
62957;SDS011;49056;48.352;10.926;2022-12-07T14:48:20;1.27;;;0.68;;
62957;SDS011;49056;48.352;10.926;2022-12-07T14:53:41;1.65;;;0.82;;
62957;SDS011;49056;48.352;10.926;2022-12-07T14:59:03;2.30;;;0.80;;
62957;SDS011;49056;48.352;10.926;2022-12-07T15:04:23;1.50;;;0.73;;
62957;SDS011;49056;48.352;10.926;2022-12-07T15:09:43;2.10;;;1.00;;
62957;SDS011;49056;48.352;10.926;2022-12-07T15:15:04;1.93;;;0.70;;
62957;SDS011;49056;48.352;10.926;2022-12-07T15:20:24;2.53;;;1.35;;
62957;SDS011;49056;48.352;10.926;2022-12-07T15:25:45;2.17;;;1.10;;
62957;SDS011;49056;48.352;10.926;2022-12-07T15:31:12;2.17;;;1.05;;
62957;SDS011;49056;48.352;10.926;2022-12-07T15:36:33;2.65;;;0.88;;
62957;SDS011;49056;48.352;10.926;2022-12-07T15:41:54;1.75;;;0.77;;
62957;SDS011;49056;48.352;10.926;2022-12-07T15:47:14;2.20;;;1.05;;
62957;SDS011;49056;48.352;10.926;2022-12-07T15:52:34;1.15;;;0.62;;
62957;SDS011;49056;48.352;10.926;2022-12-07T15:57:55;1.45;;;0.77;;
62957;SDS011;49056;48.352;10.926;2022-12-07T16:03:15;1.47;;;0.73;;
62957;SDS011;49056;48.352;10.926;2022-12-07T16:08:36;1.40;;;0.70;;
62957;SDS011;49056;48.352;10.926;2022-12-07T16:13:56;1.47;;;0.90;;
62957;SDS011;49056;48.352;10.926;2022-12-07T16:19:17;1.48;;;0.70;;
62957;SDS011;49056;48.352;10.926;2022-12-07T16:24:38;1.33;;;0.62;;
62957;SDS011;49056;48.352;10.926;2022-12-07T16:29:58;1.35;;;0.70;;
62957;SDS011;49056;48.352;10.926;2022-12-07T16:35:19;1.40;;;0.80;;
62957;SDS011;49056;48.352;10.926;2022-12-07T16:40:39;1.85;;;0.60;;
62957;SDS011;49056;48.352;10.926;2022-12-07T16:45:59;1.67;;;0.70;;
62957;SDS011;49056;48.352;10.926;2022-12-07T16:51:20;1.97;;;0.87;;
62957;SDS011;49056;48.352;10.926;2022-12-07T16:56:40;1.20;;;0.60;;
62957;SDS011;49056;48.352;10.926;2022-12-07T17:02:01;2.20;;;1.20;;
62957;SDS011;49056;48.352;10.926;2022-12-07T17:07:22;1.40;;;0.90;;
62957;SDS011;49056;48.352;10.926;2022-12-07T17:12:42;1.17;;;0.75;;
62957;SDS011;49056;48.352;10.926;2022-12-07T17:18:02;1.87;;;0.80;;
62957;SDS011;49056;48.352;10.926;2022-12-07T17:23:23;1.57;;;0.70;;
62957;SDS011;49056;48.352;10.926;2022-12-07T17:28:45;1.15;;;0.93;;
62957;SDS011;49056;48.352;10.926;2022-12-07T17:34:09;0.98;;;0.60;;
62957;SDS011;49056;48.352;10.926;2022-12-07T17:39:30;1.55;;;0.60;;
62957;SDS011;49056;48.352;10.926;2022-12-07T17:44:51;1.67;;;1.10;;
62957;SDS011;49056;48.352;10.926;2022-12-07T17:50:11;2.00;;;0.73;;
62957;SDS011;49056;48.352;10.926;2022-12-07T17:55:31;0.83;;;0.70;;
62957;SDS011;49056;48.352;10.926;2022-12-07T18:00:52;1.17;;;0.80;;
62957;SDS011;49056;48.352;10.926;2022-12-07T18:06:12;1.17;;;0.73;;
62957;SDS011;49056;48.352;10.926;2022-12-07T18:11:33;0.80;;;0.73;;
62957;SDS011;49056;48.352;10.926;2022-12-07T18:16:53;1.70;;;0.85;;
62957;SDS011;49056;48.352;10.926;2022-12-07T18:22:14;0.75;;;0.60;;
62957;SDS011;49056;48.352;10.926;2022-12-07T18:27:34;1.17;;;0.88;;
62957;SDS011;49056;48.352;10.926;2022-12-07T18:32:55;1.57;;;0.83;;
62957;SDS011;49056;48.352;10.926;2022-12-07T18:38:16;1.87;;;0.82;;
62957;SDS011;49056;48.352;10.926;2022-12-07T18:43:37;2.33;;;0.65;;
62957;SDS011;49056;48.352;10.926;2022-12-07T18:48:57;1.30;;;0.73;;
62957;SDS011;49056;48.352;10.926;2022-12-07T18:54:18;2.83;;;1.40;;
62957;SDS011;49056;48.352;10.926;2022-12-07T18:59:38;1.42;;;0.93;;
62957;SDS011;49056;48.352;10.926;2022-12-07T19:05:08;2.25;;;0.60;;
62957;SDS011;49056;48.352;10.926;2022-12-07T19:10:29;1.37;;;0.77;;
62957;SDS011;49056;48.352;10.926;2022-12-07T19:15:49;1.37;;;0.80;;
62957;SDS011;49056;48.352;10.926;2022-12-07T19:21:10;2.37;;;1.17;;
62957;SDS011;49056;48.352;10.926;2022-12-07T19:26:30;2.03;;;0.90;;
62957;SDS011;49056;48.352;10.926;2022-12-07T19:31:50;1.25;;;0.60;;
62957;SDS011;49056;48.352;10.926;2022-12-07T19:37:11;2.65;;;1.05;;
62957;SDS011;49056;48.352;10.926;2022-12-07T19:42:32;1.77;;;1.10;;
62957;SDS011;49056;48.352;10.926;2022-12-07T19:47:54;1.75;;;0.93;;
62957;SDS011;49056;48.352;10.926;2022-12-07T19:53:15;2.63;;;1.10;;
62957;SDS011;49056;48.352;10.926;2022-12-07T19:58:35;2.15;;;1.17;;
62957;SDS011;49056;48.352;10.926;2022-12-07T20:03:56;1.73;;;1.02;;
62957;SDS011;49056;48.352;10.926;2022-12-07T20:09:16;2.17;;;1.27;;
62957;SDS011;49056;48.352;10.926;2022-12-07T20:14:37;2.40;;;1.10;;
62957;SDS011;49056;48.352;10.926;2022-12-07T20:19:57;2.33;;;1.33;;
62957;SDS011;49056;48.352;10.926;2022-12-07T20:25:18;2.70;;;1.48;;
62957;SDS011;49056;48.352;10.926;2022-12-07T20:30:48;2.40;;;1.48;;
62957;SDS011;49056;48.352;10.926;2022-12-07T20:36:09;2.15;;;1.25;;
62957;SDS011;49056;48.352;10.926;2022-12-07T20:41:30;3.45;;;1.65;;
62957;SDS011;49056;48.352;10.926;2022-12-07T20:47:09;3.25;;;1.50;;
62957;SDS011;49056;48.352;10.926;2022-12-07T20:52:30;1.90;;;1.27;;
62957;SDS011;49056;48.352;10.926;2022-12-07T20:57:50;2.08;;;1.15;;
62957;SDS011;49056;48.352;10.926;2022-12-07T21:03:10;1.85;;;1.17;;
62957;SDS011;49056;48.352;10.926;2022-12-07T21:08:31;2.53;;;1.45;;
62957;SDS011;49056;48.352;10.926;2022-12-07T21:13:51;2.93;;;1.53;;
62957;SDS011;49056;48.352;10.926;2022-12-07T21:19:12;3.20;;;1.75;;
62957;SDS011;49056;48.352;10.926;2022-12-07T21:24:32;2.60;;;1.42;;
62957;SDS011;49056;48.352;10.926;2022-12-07T21:29:52;3.27;;;1.73;;
62957;SDS011;49056;48.352;10.926;2022-12-07T21:35:13;2.67;;;1.30;;
62957;SDS011;49056;48.352;10.926;2022-12-07T21:40:33;3.12;;;1.92;;
62957;SDS011;49056;48.352;10.926;2022-12-07T21:45:54;4.43;;;1.95;;
62957;SDS011;49056;48.352;10.926;2022-12-07T21:51:14;2.47;;;1.40;;
62957;SDS011;49056;48.352;10.926;2022-12-07T21:56:35;2.37;;;1.42;;
62957;SDS011;49056;48.352;10.926;2022-12-07T22:01:56;2.97;;;1.98;;
62957;SDS011;49056;48.352;10.926;2022-12-07T22:07:16;2.85;;;1.50;;
62957;SDS011;49056;48.352;10.926;2022-12-07T22:12:36;3.78;;;1.90;;
62957;SDS011;49056;48.352;10.926;2022-12-07T22:17:57;5.17;;;1.63;;
62957;SDS011;49056;48.352;10.926;2022-12-07T22:23:17;3.50;;;1.87;;
62957;SDS011;49056;48.352;10.926;2022-12-07T22:28:38;2.13;;;1.50;;
62957;SDS011;49056;48.352;10.926;2022-12-07T22:33:58;4.60;;;2.15;;
62957;SDS011;49056;48.352;10.926;2022-12-07T22:39:19;2.53;;;1.55;;
62957;SDS011;49056;48.352;10.926;2022-12-07T22:44:39;2.63;;;1.67;;
62957;SDS011;49056;48.352;10.926;2022-12-07T22:50:02;3.40;;;1.73;;
62957;SDS011;49056;48.352;10.926;2022-12-07T22:55:24;3.28;;;2.15;;
62957;SDS011;49056;48.352;10.926;2022-12-07T23:00:44;3.20;;;1.92;;
62957;SDS011;49056;48.352;10.926;2022-12-07T23:06:08;2.78;;;1.80;;
62957;SDS011;49056;48.352;10.926;2022-12-07T23:11:30;4.68;;;2.20;;
62957;SDS011;49056;48.352;10.926;2022-12-07T23:17:09;4.70;;;1.50;;
62957;SDS011;49056;48.352;10.926;2022-12-07T23:22:29;3.67;;;2.23;;
62957;SDS011;49056;48.352;10.926;2022-12-07T23:27:50;3.47;;;2.15;;
62957;SDS011;49056;48.352;10.926;2022-12-07T23:33:10;3.67;;;2.30;;
62957;SDS011;49056;48.352;10.926;2022-12-07T23:38:31;3.75;;;1.80;;
62957;SDS011;49056;48.352;10.926;2022-12-07T23:43:52;3.70;;;2.20;;
62957;SDS011;49056;48.352;10.926;2022-12-07T23:49:12;4.10;;;2.35;;
62957;SDS011;49056;48.352;10.926;2022-12-07T23:54:33;3.65;;;1.73;;
62957;SDS011;49056;48.352;10.926;2022-12-07T23:59:53;3.90;;;1.90;;
